Time;durP1;ratioP1;P1;durP2;ratioP2;P2;SDS_P1;SDS_P2;PMS_P1;PMS_P2;Temp;Humidity;BMP_temperature;BMP_pressure;BME280_temperature;BME280_humidity;BME280_pressure;Samples;Min_cycle;Max_cycle;Signal;HPM_P1;HPM_P2
2021/12/09 00:01:06;;;;;;;18.98;6.47;;;0.90;99.90;;;;;;5072225;28;19961;-84
2021/12/09 00:03:34;;;;;;;;;;;1.00;99.90;;;;;;5073825;28;20522;-82
2021/12/09 00:06:02;;;;;;;17.13;8.40;;;1.00;99.90;;;;;;5073952;28;20380;-83
2021/12/09 00:08:29;;;;;;;19.17;8.10;;;1.10;99.90;;;;;;5072995;28;20029;-82
2021/12/09 00:10:58;;;;;;;22.05;8.55;;;1.10;99.90;;;;;;5072784;28;20036;-84
2021/12/09 00:13:25;;;;;;;23.92;10.63;;;1.00;99.90;;;;;;5073774;28;20055;-82
2021/12/09 00:15:52;;;;;;;28.95;11.68;;;0.90;99.90;;;;;;5072212;28;20021;-82
2021/12/09 00:18:18;;;;;;;28.52;9.35;;;0.90;99.90;;;;;;5069964;28;20039;-84
2021/12/09 00:20:44;;;;;;;23.95;8.82;;;0.90;99.90;;;;;;5073893;28;20024;-85
2021/12/09 00:23:10;;;;;;;24.70;10.23;;;0.90;99.90;;;;;;5073637;28;20044;-83
2021/12/09 00:25:36;;;;;;;30.40;11.10;;;0.90;99.90;;;;;;5072150;28;20024;-83
2021/12/09 00:28:04;;;;;;;28.85;11.80;;;0.90;99.90;;;;;;5072556;28;20028;-84
2021/12/09 00:30:30;;;;;;;29.92;11.50;;;0.90;99.90;;;;;;5072943;28;20017;-85
2021/12/09 00:32:57;;;;;;;20.52;8.70;;;0.90;99.90;;;;;;5073416;28;20074;-82
2021/12/09 00:35:29;;;;;;;32.33;13.43;;;0.90;99.90;;;;;;5072048;28;20031;-84
2021/12/09 00:38:01;;;;;;;31.17;12.82;;;0.90;99.90;;;;;;5073403;28;20135;-83
2021/12/09 00:40:27;;;;;;;29.55;11.65;;;0.90;99.90;;;;;;5073297;28;20029;-86
2021/12/09 00:42:54;;;;;;;32.15;9.95;;;0.80;99.90;;;;;;5071973;28;20103;-85
2021/12/09 00:45:21;;;;;;;28.08;10.13;;;0.80;99.90;;;;;;5061183;28;20089;-83
2021/12/09 00:47:47;;;;;;;25.77;9.77;;;0.90;99.90;;;;;;5071769;28;20031;-84
2021/12/09 00:50:13;;;;;;;25.55;8.52;;;0.80;99.90;;;;;;5072182;28;20020;-85
2021/12/09 00:52:40;;;;;;;22.58;8.18;;;0.90;99.90;;;;;;5071448;28;20074;-83
2021/12/09 00:55:07;;;;;;;25.42;10.82;;;0.90;99.90;;;;;;5069683;28;20028;-86
2021/12/09 00:57:34;;;;;;;24.45;9.80;;;0.90;99.90;;;;;;5071770;28;20039;-86
2021/12/09 01:00:00;;;;;;;23.23;9.10;;;0.90;99.90;;;;;;5071569;28;20071;-83
2021/12/09 01:02:26;;;;;;;24.65;8.25;;;0.90;99.90;;;;;;5071047;28;20135;-84
2021/12/09 01:04:52;;;;;;;27.27;9.05;;;0.90;99.90;;;;;;5069959;28;20543;-83
2021/12/09 01:07:18;;;;;;;23.73;8.88;;;1.00;99.90;;;;;;5071727;28;20029;-84
2021/12/09 01:09:45;;;;;;;33.63;12.70;;;0.90;99.90;;;;;;5071291;28;20085;-86
2021/12/09 01:12:11;;;;;;;23.13;9.23;;;0.90;99.90;;;;;;5073100;28;20479;-84
2021/12/09 01:14:37;;;;;;;24.55;9.15;;;0.90;99.90;;;;;;5078675;28;20032;-83
2021/12/09 01:17:08;;;;;;;26.00;8.45;;;0.90;99.90;;;;;;5090488;28;20028;-82
2021/12/09 01:19:35;;;;;;;24.85;7.03;;;1.00;99.90;;;;;;5081804;28;20029;-83
2021/12/09 01:22:01;;;;;;;25.20;9.63;;;1.00;99.90;;;;;;5054970;28;20040;-84
2021/12/09 01:24:26;;;;;;;29.30;9.10;;;1.00;99.90;;;;;;5071814;28;20029;-84
2021/12/09 01:26:52;;;;;;;28.50;9.77;;;1.00;99.90;;;;;;5072447;28;20096;-83
2021/12/09 01:29:28;;;;;;;24.25;8.45;;;1.00;99.90;;;;;;5050818;28;20029;-83
2021/12/09 01:32:00;;;;;;;28.77;10.50;;;1.00;99.90;;;;;;5067401;28;20085;-82
2021/12/09 01:34:25;;;;;;;27.55;9.30;;;1.00;99.90;;;;;;5065937;28;20028;-84
2021/12/09 01:36:51;;;;;;;33.70;10.93;;;0.90;99.90;;;;;;5072238;28;20028;-83
2021/12/09 01:39:18;;;;;;;33.00;11.40;;;0.90;99.90;;;;;;5071092;28;20028;-84
2021/12/09 01:41:44;;;;;;;24.70;9.35;;;0.80;99.90;;;;;;5072223;28;20033;-85
2021/12/09 01:44:10;;;;;;;27.85;10.68;;;0.90;99.90;;;;;;5071963;28;20033;-83
2021/12/09 01:46:36;;;;;;;29.05;9.50;;;0.80;99.90;;;;;;5070612;28;20429;-82
2021/12/09 01:49:02;;;;;;;26.60;8.60;;;0.80;99.90;;;;;;5072087;28;20104;-84
2021/12/09 01:51:28;;;;;;;22.23;9.77;;;0.80;99.90;;;;;;5072270;28;20104;-83
2021/12/09 01:53:54;;;;;;;20.08;7.13;;;0.80;99.90;;;;;;5070178;28;20116;-83
2021/12/09 01:56:23;;;;;;;28.95;9.55;;;0.80;99.90;;;;;;5071025;28;20033;-85
2021/12/09 01:58:50;;;;;;;27.95;9.05;;;0.90;99.90;;;;;;5068348;28;20091;-84
2021/12/09 02:01:17;;;;;;;31.88;9.73;;;0.90;99.90;;;;;;5070349;28;20115;-86
2021/12/09 02:03:42;;;;;;;22.58;7.90;;;0.90;99.90;;;;;;5071970;28;20047;-83
2021/12/09 02:06:09;;;;;;;29.63;8.88;;;0.90;99.90;;;;;;5070687;28;20029;-84
2021/12/09 02:08:34;;;;;;;24.65;8.38;;;0.90;99.90;;;;;;5066033;28;20436;-85
2021/12/09 02:11:00;;;;;;;22.20;9.05;;;0.80;99.90;;;;;;5071759;28;20067;-84
2021/12/09 02:13:27;;;;;;;22.10;7.75;;;0.90;99.90;;;;;;5069065;28;20059;-83
2021/12/09 02:15:55;;;;;;;19.60;6.57;;;0.90;99.90;;;;;;5067964;28;20017;-83
2021/12/09 02:18:22;;;;;;;25.45;7.80;;;0.90;99.90;;;;;;5068296;28;20016;-84
2021/12/09 02:21:09;;;;;;;22.27;7.50;;;0.80;99.90;;;;;;5071876;28;20035;-84
2021/12/09 02:23:36;;;;;;;20.75;7.45;;;0.80;99.90;;;;;;5067169;28;20081;-84
2021/12/09 02:26:03;;;;;;;20.23;6.05;;;0.80;99.90;;;;;;5069855;28;20042;-86
2021/12/09 02:28:29;;;;;;;18.08;7.82;;;0.90;99.90;;;;;;5072038;28;20033;-85
2021/12/09 02:30:55;;;;;;;31.58;7.55;;;0.80;99.90;;;;;;5071216;28;20432;-85
2021/12/09 02:33:21;;;;;;;21.85;6.57;;;0.90;99.90;;;;;;5071382;28;20020;-84
2021/12/09 02:35:47;;;;;;;16.75;6.38;;;0.80;99.90;;;;;;5067013;28;20032;-86
2021/12/09 02:38:13;;;;;;;15.98;6.45;;;0.80;99.90;;;;;;5053243;28;20029;-84
2021/12/09 02:40:38;;;;;;;16.00;6.05;;;0.80;99.90;;;;;;5071622;28;20107;-86
2021/12/09 02:43:07;;;;;;;20.05;5.68;;;0.80;99.90;;;;;;5071420;28;20078;-85
2021/12/09 02:45:34;;;;;;;19.08;6.35;;;0.80;99.90;;;;;;5066533;28;20029;-83
2021/12/09 02:48:00;;;;;;;27.48;6.28;;;0.90;99.90;;;;;;5071126;28;20100;-84
2021/12/09 02:50:26;;;;;;;17.38;5.72;;;0.90;99.90;;;;;;5071327;28;20108;-85
2021/12/09 02:52:51;;;;;;;14.30;5.38;;;0.90;99.90;;;;;;5071629;28;20480;-85
2021/12/09 02:55:17;;;;;;;16.92;5.90;;;0.90;99.90;;;;;;5065830;28;20153;-85
2021/12/09 02:57:43;;;;;;;33.30;6.15;;;0.90;99.90;;;;;;5071503;28;20036;-84
2021/12/09 03:00:10;;;;;;;19.17;6.03;;;0.90;99.90;;;;;;5070093;28;20036;-85
2021/12/09 03:02:37;;;;;;;25.00;6.10;;;0.90;99.90;;;;;;5070444;28;20052;-84
2021/12/09 03:05:04;;;;;;;21.15;4.68;;;0.90;99.90;;;;;;5072822;28;20203;-83
2021/12/09 03:07:37;;;;;;;29.90;6.57;;;0.90;99.90;;;;;;5074779;28;20032;-84
2021/12/09 03:10:19;;;;;;;20.10;5.38;;;0.80;99.90;;;;;;5072139;28;20017;-84
2021/12/09 03:12:47;;;;;;;13.38;5.15;;;0.80;99.90;;;;;;5092028;28;20060;-81
2021/12/09 03:15:12;;;;;;;7.70;3.20;;;0.80;99.90;;;;;;5095594;28;20016;-86
2021/12/09 03:17:40;;;;;;;9.32;4.47;;;0.80;99.90;;;;;;5096646;28;20059;-85
2021/12/09 03:20:09;;;;;;;8.55;3.50;;;0.80;99.90;;;;;;5096059;28;20008;-83
2021/12/09 03:22:35;;;;;;;8.63;2.95;;;0.80;99.90;;;;;;5095084;28;20031;-84
2021/12/09 03:25:01;;;;;;;8.85;3.28;;;0.80;99.90;;;;;;5095177;28;20107;-83
2021/12/09 03:27:26;;;;;;;9.25;3.05;;;0.80;99.90;;;;;;5076420;28;20028;-86
2021/12/09 03:29:52;;;;;;;8.73;3.78;;;0.80;99.90;;;;;;5057479;28;20835;-87
2021/12/09 03:32:20;;;;;;;14.40;4.18;;;0.70;99.90;;;;;;5073840;28;20524;-84
2021/12/09 03:34:46;;;;;;;9.70;4.78;;;0.80;99.90;;;;;;5057340;28;20068;-85
2021/12/09 03:37:23;;;;;;;12.98;5.72;;;0.80;99.90;;;;;;5074501;28;20024;-86
2021/12/09 03:39:50;;;;;;;9.55;3.92;;;0.80;99.90;;;;;;5074950;28;20032;-86
2021/12/09 03:42:17;;;;;;;8.60;4.03;;;0.80;99.90;;;;;;5053815;28;20037;-87
2021/12/09 03:44:45;;;;;;;14.13;4.43;;;0.80;99.90;;;;;;5083421;28;20029;-85
2021/12/09 03:47:13;;;;;;;13.48;5.13;;;0.80;99.90;;;;;;5074310;28;20025;-85
2021/12/09 03:49:42;;;;;;;13.70;4.70;;;0.80;99.90;;;;;;5074108;28;20056;-83
2021/12/09 03:52:08;;;;;;;13.52;4.10;;;0.80;99.90;;;;;;5071748;28;20025;-85
2021/12/09 03:54:34;;;;;;;10.90;4.57;;;0.80;99.90;;;;;;5066545;28;20136;-86
2021/12/09 03:57:00;;;;;;;12.15;5.30;;;0.80;99.90;;;;;;5074203;28;20166;-86
2021/12/09 03:59:27;;;;;;;14.98;5.53;;;0.80;99.90;;;;;;5074439;28;20024;-87
2021/12/09 04:01:54;;;;;;;12.48;4.63;;;0.80;99.90;;;;;;5072173;28;20085;-86
2021/12/09 04:04:20;;;;;;;10.35;4.05;;;0.80;99.90;;;;;;5073844;28;20051;-85
2021/12/09 04:06:46;;;;;;;12.15;4.85;;;0.90;99.90;;;;;;5074055;28;20036;-87
2021/12/09 04:09:14;;;;;;;12.55;5.07;;;0.80;99.90;;;;;;5073916;28;20025;-86
2021/12/09 04:11:40;;;;;;;11.18;4.95;;;0.80;99.90;;;;;;5069230;28;20033;-85
2021/12/09 04:14:06;;;;;;;15.77;5.82;;;0.80;99.90;;;;;;5072730;28;20392;-89
2021/12/09 04:16:33;;;;;;;18.35;6.53;;;0.80;99.90;;;;;;5072736;28;20068;-85
2021/12/09 04:19:01;;;;;;;16.80;7.13;;;0.80;99.90;;;;;;5073928;28;20040;-86
2021/12/09 04:21:27;;;;;;;23.60;7.03;;;0.90;99.90;;;;;;5072440;28;20070;-85
2021/12/09 04:23:53;;;;;;;24.70;7.05;;;0.90;99.90;;;;;;5072567;28;20119;-88
2021/12/09 04:26:19;;;;;;;19.45;6.60;;;0.90;99.90;;;;;;5072722;28;20059;-88
2021/12/09 04:28:45;;;;;;;24.02;7.25;;;0.80;99.90;;;;;;5072466;28;20419;-86
2021/12/09 04:31:12;;;;;;;19.60;7.85;;;0.80;99.90;;;;;;5071340;28;20037;-87
2021/12/09 04:33:38;;;;;;;19.67;6.32;;;0.80;99.90;;;;;;5073057;28;20052;-85
2021/12/09 04:36:04;;;;;;;28.42;8.10;;;0.80;99.90;;;;;;5072034;28;20024;-86
2021/12/09 04:38:30;;;;;;;18.00;6.88;;;0.80;99.90;;;;;;5080814;28;20029;-84
2021/12/09 04:40:57;;;;;;;20.15;7.43;;;0.80;99.90;;;;;;5092121;28;20032;-83
2021/12/09 04:43:22;;;;;;;17.45;6.60;;;0.80;99.90;;;;;;5082327;28;20029;-85
2021/12/09 04:45:48;;;;;;;20.63;7.60;;;0.80;99.90;;;;;;5072770;28;20108;-84
2021/12/09 04:48:13;;;;;;;20.65;7.80;;;0.80;99.90;;;;;;5071914;28;20094;-86
2021/12/09 04:50:41;;;;;;;23.38;7.55;;;0.90;99.90;;;;;;5071819;28;20024;-88
2021/12/09 04:53:07;;;;;;;20.10;9.10;;;0.80;99.90;;;;;;5072016;28;20024;-86
2021/12/09 04:55:33;;;;;;;23.02;7.95;;;0.80;99.90;;;;;;5073155;28;20025;-85
2021/12/09 04:57:59;;;;;;;18.70;7.47;;;0.80;99.90;;;;;;5071869;28;20067;-87
2021/12/09 05:00:28;;;;;;;20.02;7.35;;;0.90;99.90;;;;;;5070256;28;20539;-87
2021/12/09 05:05:20;;;;;;;22.13;7.95;;;0.80;99.90;;;;;;5072863;28;20043;-84
2021/12/09 05:07:47;;;;;;;19.20;7.45;;;0.80;99.90;;;;;;5071306;28;20376;-84
2021/12/09 05:10:12;;;;;;;22.55;7.50;;;0.80;99.90;;;;;;5070188;28;20032;-84
2021/12/09 05:12:38;;;;;;;22.73;8.48;;;0.90;99.90;;;;;;5051194;28;20048;-85
2021/12/09 05:15:04;;;;;;;24.10;9.15;;;0.80;99.90;;;;;;5081495;28;20495;-84
2021/12/09 05:17:30;;;;;;;17.33;6.60;;;0.80;99.90;;;;;;5072658;28;20021;-86
2021/12/09 05:19:56;;;;;;;17.40;8.63;;;0.80;99.90;;;;;;5070985;28;20510;-87
2021/12/09 05:22:21;;;;;;;24.13;8.13;;;0.80;99.90;;;;;;5068824;28;20031;-86
2021/12/09 05:24:49;;;;;;;22.60;7.97;;;0.90;99.90;;;;;;5087133;28;20032;-85
2021/12/09 05:27:16;;;;;;;13.77;6.35;;;0.80;99.90;;;;;;5072471;28;20568;-85
2021/12/09 05:29:43;;;;;;;21.40;8.30;;;0.80;99.90;;;;;;5071334;28;20166;-84
2021/12/09 05:32:12;;;;;;;21.15;7.60;;;0.90;99.90;;;;;;5063654;28;20024;-85
2021/12/09 05:34:46;;;;;;;19.55;8.25;;;0.80;99.90;;;;;;5054226;28;20040;-85
2021/12/09 05:37:15;;;;;;;23.88;7.70;;;0.90;99.90;;;;;;5072675;28;20444;-85
2021/12/09 05:39:42;;;;;;;21.55;7.82;;;0.90;99.90;;;;;;5070903;28;20395;-84
2021/12/09 05:42:09;;;;;;;18.50;6.88;;;0.90;99.90;;;;;;5069710;28;20028;-84
2021/12/09 05:44:36;;;;;;;15.27;5.95;;;0.90;99.90;;;;;;5071844;28;20037;-86
2021/12/09 05:47:04;;;;;;;13.70;6.18;;;0.90;99.90;;;;;;5072001;28;20024;-86
2021/12/09 05:49:30;;;;;;;13.68;5.80;;;0.90;99.90;;;;;;5072107;28;20029;-88
2021/12/09 05:51:56;;;;;;;13.35;6.28;;;0.90;99.90;;;;;;5054142;28;20031;-86
2021/12/09 05:54:21;;;;;;;11.73;4.80;;;0.90;99.90;;;;;;5068545;28;20028;-86
2021/12/09 05:56:47;;;;;;;15.40;5.53;;;0.90;99.90;;;;;;5071464;28;20037;-88
2021/12/09 05:59:13;;;;;;;16.75;6.07;;;0.90;99.90;;;;;;5072289;28;20077;-88
2021/12/09 06:01:40;;;;;;;11.50;4.75;;;0.90;99.90;;;;;;5070219;28;20553;-88
2021/12/09 06:04:07;;;;;;;10.02;4.45;;;0.80;99.90;;;;;;5054198;28;20052;-87
2021/12/09 06:06:33;;;;;;;20.45;5.78;;;0.90;99.90;;;;;;5071327;28;20086;-87
2021/12/09 06:08:59;;;;;;;12.30;5.47;;;0.90;99.90;;;;;;5071615;28;20116;-85
2021/12/09 06:11:26;;;;;;;14.63;5.88;;;0.90;99.90;;;;;;5053071;28;20123;-87
2021/12/09 06:13:53;;;;;;;14.10;5.25;;;0.90;99.90;;;;;;5071402;28;20039;-85
2021/12/09 06:16:19;;;;;;;15.57;5.82;;;0.90;99.90;;;;;;5063065;28;20105;-85
2021/12/09 06:18:45;;;;;;;13.50;5.22;;;1.00;99.90;;;;;;5071708;28;20032;-86
2021/12/09 06:21:10;;;;;;;14.35;5.22;;;1.00;99.90;;;;;;5070467;28;20035;-88
2021/12/09 06:23:37;;;;;;;12.95;4.80;;;0.90;99.90;;;;;;5054253;28;20395;-85
2021/12/09 06:26:05;;;;;;;18.38;5.18;;;0.90;99.90;;;;;;5071534;28;20021;-86
2021/12/09 06:28:32;;;;;;;10.82;4.57;;;0.90;99.90;;;;;;5071673;28;20020;-88
2021/12/09 06:30:57;;;;;;;11.15;4.30;;;0.80;99.90;;;;;;5070693;28;20029;-88
2021/12/09 06:33:23;;;;;;;14.18;5.43;;;0.80;99.90;;;;;;5053407;28;20020;-87
2021/12/09 06:35:49;;;;;;;10.48;4.38;;;0.80;99.90;;;;;;5070152;28;20488;-88
2021/12/09 06:38:16;;;;;;;14.02;4.63;;;0.80;99.90;;;;;;5070513;28;20028;-86
2021/12/09 06:40:44;;;;;;;11.48;4.45;;;0.80;99.90;;;;;;5054042;28;20029;-89
2021/12/09 06:43:11;;;;;;;9.25;3.97;;;0.80;99.90;;;;;;5070845;28;20111;-84
2021/12/09 06:45:37;;;;;;;11.45;5.93;;;0.80;99.90;;;;;;5070540;28;20029;-87
2021/12/09 06:48:03;;;;;;;11.23;4.60;;;0.70;99.90;;;;;;5070408;28;20027;-87
2021/12/09 06:50:29;;;;;;;11.90;5.03;;;0.80;99.90;;;;;;5071635;28;20029;-85
2021/12/09 06:52:54;;;;;;;12.88;5.70;;;0.70;99.90;;;;;;5049948;28;20547;-87
2021/12/09 06:55:21;;;;;;;13.52;5.57;;;0.70;99.90;;;;;;5071765;28;20395;-86
2021/12/09 06:57:48;;;;;;;13.15;5.07;;;0.70;99.90;;;;;;5070374;28;20103;-85
2021/12/09 07:00:21;;;;;;;17.83;4.70;;;0.70;99.90;;;;;;5069856;28;20054;-86
2021/12/09 07:02:47;;;;;;;12.77;4.57;;;0.70;99.90;;;;;;5054860;28;20044;-85
2021/12/09 07:05:14;;;;;;;12.70;5.85;;;0.80;99.90;;;;;;5075169;28;20472;-86
2021/12/09 07:07:42;;;;;;;9.73;4.93;;;0.80;99.90;;;;;;5074025;28;20491;-86
2021/12/09 07:10:10;;;;;;;10.05;4.32;;;0.80;99.90;;;;;;5075366;28;20016;-87
2021/12/09 07:12:37;;;;;;;10.80;3.95;;;0.80;99.90;;;;;;5057829;28;20111;-86
2021/12/09 07:15:04;;;;;;;13.85;4.35;;;0.80;99.90;;;;;;5075192;28;20483;-88
2021/12/09 07:17:29;;;;;;;11.68;4.75;;;0.80;99.90;;;;;;5073703;28;20024;-86
2021/12/09 07:19:55;;;;;;;12.35;3.95;;;0.80;99.90;;;;;;5073850;28;20043;-86
2021/12/09 07:22:21;;;;;;;14.75;4.68;;;0.80;99.90;;;;;;5074125;28;20519;-88
2021/12/09 07:24:46;;;;;;;12.50;4.55;;;0.80;99.90;;;;;;5057316;28;20029;-89
2021/12/09 07:27:12;;;;;;;12.27;4.72;;;0.80;99.90;;;;;;5075113;28;20032;-87
2021/12/09 07:29:38;;;;;;;13.20;4.78;;;0.80;99.90;;;;;;5074966;28;20025;-88
2021/12/09 07:32:05;;;;;;;9.00;4.15;;;0.80;99.90;;;;;;5075052;28;20036;-87
2021/12/09 07:34:30;;;;;;;28.75;5.07;;;0.80;99.90;;;;;;5075327;28;20020;-88
2021/12/09 07:37:02;;;;;;;9.05;3.83;;;0.80;99.90;;;;;;5073616;28;20116;-88
2021/12/09 07:39:28;;;;;;;11.68;5.30;;;0.80;99.90;;;;;;5057715;28;20029;-88
2021/12/09 07:41:56;;;;;;;14.02;4.25;;;0.90;99.90;;;;;;5074925;28;20031;-88
2021/12/09 07:44:29;;;;;;;15.00;4.60;;;1.00;99.90;;;;;;5074918;28;20036;-88
2021/12/09 07:46:57;;;;;;;14.25;5.40;;;0.90;99.90;;;;;;5073543;28;20487;-86
2021/12/09 07:49:24;;;;;;;10.75;4.63;;;0.90;99.90;;;;;;5074179;28;20063;-87
2021/12/09 07:51:50;;;;;;;23.25;5.55;;;0.90;99.90;;;;;;5074837;28;20021;-86
2021/12/09 07:54:17;;;;;;;16.13;5.63;;;0.90;99.90;;;;;;5074096;28;20043;-88
2021/12/09 07:56:43;;;;;;;16.50;5.93;;;0.90;99.90;;;;;;5075059;28;20070;-90
2021/12/09 07:59:11;;;;;;;13.10;5.97;;;0.90;99.90;;;;;;5073829;28;20154;-87
2021/12/09 08:01:41;;;;;;;12.93;5.93;;;0.90;99.90;;;;;;5086653;28;20036;-86
2021/12/09 08:04:07;;;;;;;20.52;6.15;;;0.90;99.90;;;;;;5097381;28;20040;-86
2021/12/09 08:06:35;;;;;;;19.55;7.20;;;0.90;99.90;;;;;;5065746;28;20284;-88
2021/12/09 08:09:01;;;;;;;15.63;6.07;;;0.90;99.90;;;;;;5073692;28;20479;-88
2021/12/09 08:11:27;;;;;;;12.68;5.68;;;0.90;99.90;;;;;;5071678;28;20187;-88
2021/12/09 08:13:53;;;;;;;16.38;7.30;;;0.90;99.90;;;;;;5074153;28;20126;-88
2021/12/09 08:16:18;;;;;;;14.63;6.88;;;1.00;99.90;;;;;;5073529;28;20036;-89
2021/12/09 08:18:54;;;;;;;25.20;8.38;;;1.00;99.90;;;;;;5073112;28;20051;-86
2021/12/09 08:21:24;;;;;;;18.60;7.07;;;1.00;99.90;;;;;;5073010;28;20028;-87
2021/12/09 08:23:51;;;;;;;17.77;8.85;;;1.10;99.90;;;;;;5074357;28;20032;-87
2021/12/09 08:26:18;;;;;;;43.40;16.90;;;1.10;99.90;;;;;;5072866;28;20052;-88
2021/12/09 08:28:44;;;;;;;21.90;10.55;;;1.10;99.90;;;;;;5074288;28;20031;-85
2021/12/09 08:31:09;;;;;;;23.98;9.57;;;1.20;99.90;;;;;;5073228;28;20028;-89
2021/12/09 08:33:35;;;;;;;11.85;5.45;;;1.20;99.90;;;;;;5072669;28;20093;-86
2021/12/09 08:36:01;;;;;;;16.80;6.72;;;1.20;99.90;;;;;;5073856;28;20514;-86
2021/12/09 08:38:27;;;;;;;16.85;5.07;;;1.20;99.90;;;;;;5074191;28;20534;-89
2021/12/09 08:40:53;;;;;;;18.10;6.72;;;1.20;99.90;;;;;;5072479;28;20067;-85
2021/12/09 08:43:20;;;;;;;24.23;7.45;;;1.30;99.90;;;;;;5072734;28;20021;-87
2021/12/09 08:45:47;;;;;;;15.80;6.35;;;1.30;99.90;;;;;;5073484;28;20056;-88
2021/12/09 08:48:13;;;;;;;15.85;8.02;;;1.30;99.90;;;;;;5074061;28;20098;-88
2021/12/09 08:50:42;;;;;;;17.02;6.90;;;1.20;99.90;;;;;;5072764;28;20055;-87
2021/12/09 08:53:10;;;;;;;16.20;7.40;;;1.30;99.90;;;;;;5073871;28;20066;-87
2021/12/09 08:55:37;;;;;;;26.00;9.52;;;1.40;99.90;;;;;;5055954;28;20036;-87
2021/12/09 08:58:04;;;;;;;21.10;7.63;;;1.40;99.90;;;;;;5073103;28;20487;-86
2021/12/09 09:00:32;;;;;;;18.20;8.05;;;1.40;99.90;;;;;;5072038;28;20035;-87
2021/12/09 09:02:57;;;;;;;23.00;9.43;;;1.40;99.90;;;;;;5069236;28;20036;-85
2021/12/09 09:05:23;;;;;;;17.23;7.90;;;1.40;99.90;;;;;;5073285;28;20032;-86
2021/12/09 09:07:49;;;;;;;17.02;7.10;;;1.40;99.90;;;;;;5073208;28;20403;-88
2021/12/09 09:10:18;;;;;;;20.67;9.90;;;1.50;99.90;;;;;;5071815;28;20025;-87
2021/12/09 09:12:47;;;;;;;20.88;8.52;;;1.30;99.90;;;;;;5072634;28;20040;-87
2021/12/09 09:15:15;;;;;;;21.42;9.40;;;1.40;99.90;;;;;;5071878;28;20496;-89
2021/12/09 09:17:41;;;;;;;17.70;8.02;;;1.50;99.90;;;;;;5071756;28;20029;-89
2021/12/09 09:20:10;;;;;;;20.52;11.05;;;1.60;99.90;;;;;;5071696;28;20479;-87
2021/12/09 09:22:37;;;;;;;25.48;10.82;;;1.70;99.90;;;;;;5071431;28;20021;-86
2021/12/09 09:25:05;;;;;;;16.45;7.88;;;1.80;99.90;;;;;;5071763;28;20178;-88
2021/12/09 09:27:31;;;;;;;18.13;8.90;;;1.80;99.90;;;;;;5055473;28;20191;-86
2021/12/09 09:29:56;;;;;;;22.50;8.45;;;1.70;99.90;;;;;;5072448;28;20060;-86
2021/12/09 09:32:22;;;;;;;24.17;9.15;;;1.80;99.90;;;;;;5071164;28;20044;-87
2021/12/09 09:34:49;;;;;;;19.60;8.45;;;1.80;99.90;;;;;;5072611;28;20492;-87
2021/12/09 09:37:16;;;;;;;24.15;9.27;;;1.70;99.90;;;;;;5071501;28;20107;-87
2021/12/09 09:39:44;;;;;;;19.23;8.93;;;1.70;99.90;;;;;;5072462;28;20028;-87
2021/12/09 09:44:47;;;;;;;23.77;8.95;;;1.80;99.90;;;;;;5072542;28;20128;-87
2021/12/09 09:47:14;;;;;;;22.25;9.23;;;1.70;99.90;;;;;;5071898;28;20047;-88
2021/12/09 09:49:40;;;;;;;23.48;8.88;;;1.70;99.90;;;;;;5053156;28;20029;-87
2021/12/09 09:52:08;;;;;;;18.35;9.65;;;1.80;99.90;;;;;;5055013;28;20028;-88
2021/12/09 09:54:35;;;;;;;242.32;26.30;;;1.70;99.90;;;;;;5072634;28;20032;-85
2021/12/09 09:57:02;;;;;;;19.38;8.10;;;1.80;99.90;;;;;;5071118;28;20063;-86
2021/12/09 09:59:28;;;;;;;16.65;7.18;;;1.80;99.90;;;;;;5071226;28;20028;-87
2021/12/09 10:01:55;;;;;;;20.95;7.82;;;1.90;99.90;;;;;;5070065;28;20500;-87
2021/12/09 10:06:58;;;;;;;14.63;6.85;;;1.80;99.90;;;;;;5071137;28;20040;-88
2021/12/09 10:09:23;;;;;;;17.27;7.32;;;1.80;99.90;;;;;;5071295;28;20496;-88
2021/12/09 10:11:49;;;;;;;13.50;7.40;;;2.00;99.90;;;;;;5052843;28;20040;-87
2021/12/09 10:14:21;;;;;;;17.13;7.15;;;2.10;99.90;;;;;;5072565;28;20591;-87
2021/12/09 10:17:08;;;;;;;22.42;6.88;;;2.20;99.90;;;;;;5072049;28;20029;-86
2021/12/09 10:19:37;;;;;;;15.68;7.88;;;2.10;99.90;;;;;;5067460;28;20029;-87
2021/12/09 10:22:19;;;;;;;15.18;6.75;;;1.90;99.90;;;;;;5070554;28;20024;-85
2021/12/09 10:24:47;;;;;;;25.27;9.07;;;2.00;99.90;;;;;;5068738;28;20495;-86
2021/12/09 10:27:24;;;;;;;17.77;8.05;;;1.90;99.90;;;;;;5068865;28;20127;-88
2021/12/09 10:29:51;;;;;;;20.35;8.57;;;1.90;99.90;;;;;;5072234;28;20482;-86
2021/12/09 10:32:28;;;;;;;21.10;9.00;;;1.70;99.90;;;;;;5071555;28;20037;-88
2021/12/09 10:34:54;;;;;;;17.95;8.13;;;1.70;99.90;;;;;;5070919;28;20632;-88
2021/12/09 10:37:28;;;;;;;22.45;8.55;;;1.80;99.90;;;;;;5074811;28;20158;-86
2021/12/09 10:39:59;;;;;;;51.00;9.13;;;1.80;99.90;;;;;;5075099;28;20993;-88
2021/12/09 10:42:30;;;;;;;19.92;8.45;;;1.90;99.90;;;;;;5075738;28;20115;-87
2021/12/09 10:45:05;;;;;;;21.17;9.02;;;2.10;99.90;;;;;;5076172;28;20036;-87
2021/12/09 10:47:55;;;;;;;17.13;8.93;;;2.10;99.90;;;;;;5070585;28;20056;-87
2021/12/09 10:51:12;;;;;;;15.38;7.47;;;2.10;99.90;;;;;;5074987;28;20032;-86
2021/12/09 10:53:50;;;;;;;26.77;9.85;;;2.10;99.90;;;;;;5075806;28;20021;-86
2021/12/09 10:56:33;;;;;;;18.17;8.30;;;2.00;99.90;;;;;;5074873;28;20025;-86
2021/12/09 10:58:59;;;;;;;20.75;9.13;;;2.20;99.90;;;;;;5075653;28;20028;-86
2021/12/09 11:01:25;;;;;;;24.67;9.93;;;2.10;99.90;;;;;;5073469;28;20121;-90
2021/12/09 11:03:58;;;;;;;23.33;10.77;;;2.00;99.90;;;;;;5074724;28;20523;-88
2021/12/09 11:06:32;;;;;;;26.73;12.48;;;1.90;99.90;;;;;;5074933;28;20056;-88
2021/12/09 11:08:59;;;;;;;23.92;9.98;;;1.90;99.90;;;;;;5074220;28;20029;-89
2021/12/09 11:11:33;;;;;;;25.30;10.05;;;1.90;99.90;;;;;;5075199;28;20017;-87
2021/12/09 11:14:03;;;;;;;19.60;9.20;;;2.20;99.90;;;;;;5075695;28;20024;-86
2021/12/09 11:16:32;;;;;;;23.63;10.30;;;2.20;99.90;;;;;;5071196;28;20020;-86
2021/12/09 11:19:11;;;;;;;30.15;9.60;;;2.40;99.90;;;;;;5075181;28;20029;-87
2021/12/09 11:21:45;;;;;;;24.42;8.18;;;2.30;99.90;;;;;;5070940;28;20075;-87
2021/12/09 11:24:16;;;;;;;21.67;9.50;;;2.30;99.90;;;;;;5094741;28;20150;-87
2021/12/09 11:26:48;;;;;;;21.90;9.75;;;2.30;99.90;;;;;;5095952;28;20019;-88
2021/12/09 11:29:16;;;;;;;18.15;8.15;;;2.40;99.90;;;;;;5084156;28;20063;-88
2021/12/09 11:32:10;;;;;;;24.40;10.38;;;2.20;99.90;;;;;;5060260;28;20035;-89
2021/12/09 11:34:54;;;;;;;18.15;8.93;;;2.20;99.90;;;;;;5072858;28;20479;-88
2021/12/09 11:40:01;;;;;;;27.38;10.45;;;2.20;99.90;;;;;;5076807;28;20062;-88
2021/12/09 11:42:34;;;;;;;18.65;8.85;;;2.50;99.90;;;;;;5058550;28;20024;-85
2021/12/09 11:45:00;;;;;;;20.60;9.75;;;2.60;99.90;;;;;;5075878;28;20094;-87
2021/12/09 11:47:26;;;;;;;18.88;11.00;;;2.40;99.90;;;;;;5074433;28;20483;-87
2021/12/09 11:49:52;;;;;;;26.02;9.75;;;2.40;99.90;;;;;;5072684;28;20028;-86
2021/12/09 11:52:20;;;;;;;24.23;10.18;;;2.40;99.90;;;;;;5073442;28;20033;-88
2021/12/09 11:55:06;;;;;;;23.08;9.48;;;2.20;99.90;;;;;;5057392;28;20028;-86
2021/12/09 12:12:41;;;;;;;19.83;9.02;;;2.20;99.90;;;;;;5044959;28;20033;-86
2021/12/09 12:24:09;;;;;;;25.63;11.95;;;2.20;99.90;;;;;;5074429;28;20040;-88
2021/12/09 12:37:49;;;;;;;22.70;10.07;;;2.10;99.90;;;;;;5074013;28;20371;-87
2021/12/09 12:40:17;;;;;;;30.55;10.80;;;2.30;99.90;;;;;;5072630;28;20120;-86
2021/12/09 12:43:00;;;;;;;19.42;9.40;;;2.30;99.90;;;;;;5081050;28;20454;-88
2021/12/09 12:51:30;;;;;;;21.90;8.55;;;2.30;99.90;;;;;;5089577;28;20033;-87
2021/12/09 12:54:47;;;;;;;19.35;9.32;;;2.30;99.90;;;;;;5080161;28;20032;-87
2021/12/09 12:57:31;;;;;;;24.63;9.85;;;2.10;99.90;;;;;;5072543;28;20064;-88
2021/12/09 13:00:15;;;;;;;22.27;10.07;;;2.20;99.90;;;;;;5074318;28;20037;-89
2021/12/09 13:05:38;;;;;;;24.48;10.65;;;2.00;99.90;;;;;;5074170;28;20392;-87
2021/12/09 13:13:37;;;;;;;19.60;9.13;;;1.80;99.90;;;;;;5071983;28;20028;-90
2021/12/09 13:21:47;;;;;;;20.52;8.68;;;1.90;99.90;;;;;;5069869;28;20024;-86
2021/12/09 13:24:20;;;;;;;17.65;8.90;;;1.90;99.90;;;;;;5072323;28;20032;-88
2021/12/09 13:27:08;;;;;;;20.75;8.00;;;1.90;99.90;;;;;;5072542;28;20025;-88
2021/12/09 13:29:50;;;;;;;19.20;8.68;;;1.80;99.90;;;;;;5073275;28;20025;-87
2021/12/09 13:32:48;;;;;;;22.25;9.95;;;1.80;99.90;;;;;;5072420;28;20032;-87
2021/12/09 13:35:21;;;;;;;20.67;8.38;;;1.90;99.90;;;;;;5071645;28;20093;-87
2021/12/09 13:38:08;;;;;;;18.52;8.85;;;1.90;99.90;;;;;;5073239;28;20081;-88
2021/12/09 13:45:53;;;;;;;21.13;8.68;;;1.90;99.90;;;;;;5071504;28;20068;-87
2021/12/09 13:49:36;;;;;;;18.95;7.57;;;1.70;99.90;;;;;;5070394;28;20027;-86
2021/12/09 13:54:03;;;;;;;18.38;7.03;;;1.70;99.90;;;;;;5070672;28;20130;-87
2021/12/09 13:54:53;;;;;;;16.33;7.45;;;1.70;99.90;;;;;;5072010;28;20070;-84
2021/12/09 13:57:33;;;;;;;24.20;7.78;;;1.60;99.90;;;;;;5087601;28;20106;-87
2021/12/09 13:59:59;;;;;;;13.77;5.65;;;1.60;99.90;;;;;;5073168;28;20092;-85
2021/12/09 14:02:26;;;;;;;17.95;8.20;;;1.60;99.90;;;;;;5071843;28;20048;-88
2021/12/09 14:04:54;;;;;;;18.75;7.18;;;1.50;99.90;;;;;;5072228;28;20040;-86